Portada
METAR-TAF:

METAR-TAF

Aeropuertos :

Aeropuerto Internacional Gobernador Francisco Gabrielli

Mendoza, Argentina

latitud: 32-50S, longitud: 068-47W, altitud: 705 m

Observación

El informe se hizo hace 25 minutos, a las 08:00 UTC
Viento calma
Temperatura 17°C
Humedad 82%
Presión 1009 hPa
Visibilidad 10 km o más
sin nubes por debajo de 1500 m y sin presencia de cumulonimbus.

METAR: SAME 280800Z 00000KT CAVOK 17/14 Q1009

Hora: 05:25 (08:25 UTC)

Pronóstico

El informe se hizo hace 3 horas y 25 minutos, a las 05:00 UTC
Pronóstico válido del 28 a las 06 UTC al 29 a las 06 UTC
Viento 3 kt con dirección variable
Visibilidad 10 km o más
sin nubes por debajo de 1500 m y sin presencia de cumulonimbus.
Evolucionando progresivamente
del 28 a las 13 UTC al 28 a las 15 UTC
Viento 5 kt del noreste

TAF: SAME 280500Z 2806/2906 VRB03KT CAVOK TX31/2820Z TN15/2810Z BECMG 2813/2815 05005KT

Observaciones y pronósticos meteorológicos de más de 4000 aeropuertos (mensajes METAR y TAF).

Los puntos amarillos y rojos representan las estaciones disponibles.

Ponga el ratón en el punto deseado para ver el nombre de la estación.

Haga clic para ver las observaciones y los pronósticos meteorológicos.

Para cambiar el mapa : haga clic en los botones verdes con una cruz de color negro para hacer un zoom, en el botón verde con un guión para alejar o en las flechas verdes para mapas adyacentes.


METAR-TAF: